Elissa — WDD9058 — position and weather

sailwx.info

Track history (hours):
 
Tides and Currents Weather Stations Pressure Air Temp Water Temp Dewpoint Dewpoint Depression Visibility Wind Speed Wind Dir Waves Ship Positions

Elissa

Owner: Ingram Barge Company, Nashville, TN. More information available from US FCC via Universal Licensing System and Coast Guard Vessel Documentation Center.

Last reported at 2016-May-03 03:13 UTC. Time now 2016-May-04 00:00 UTC.
Position N 29°57' W 090°10'.

Length 26 m; draft 3.6 m.

Type: Towing. MMSI: 367306290.

Date/timePositionNaut miles runAvg speedWind from/ knotsBaromVisibWave heightAir tempDewpointWater temp
2016-May-03 03:13N 29°57' W 090°10'1 1.0
2016-May-03 02:33N 29°57' W 090°10'0 0.0
2016-May-03 01:32N 29°57' W 090°10'0 0.0
2016-May-03 00:33N 29°57' W 090°10'0 0.2
2016-May-02 23:33N 29°57' W 090°10'0 0.0
2016-May-02 22:33N 29°57' W 090°10'2 0.0
2016-Apr-30 22:21N 29°56' W 090°12'2 2.8
2016-Apr-30 21:33N 29°57' W 090°10'0 0.0
2016-Apr-30 20:33N 29°57' W 090°10'1 0.6
2016-Apr-30 18:32N 29°57' W 090°08'3 3.6
2016-Apr-30 17:33N 29°55' W 090°05'4 4.2
2016-Apr-30 16:33N 29°56' W 090°00'5 2.6
2016-Apr-30 14:33N 29°51' W 089°59'4 4.0
2016-Apr-30 13:32N 29°48' W 090°01'9 5.9
2016-Apr-30 12:05N 29°55' W 089°55'611.4
2016-Apr-30 11:33N 29°57' W 090°01'6 6.3
2016-Apr-30 10:33N 29°55' W 090°08'2 2.1
2016-Apr-30 09:33N 29°57' W 090°10'0 0.2
2016-Apr-30 08:23N 29°57' W 090°10'  
2016-Apr-26 20:06N 29°56' W 090°11'2 2.0
2016-Apr-26 19:14N 29°57' W 090°10'0 0.1
2016-Apr-26 17:11N 29°57' W 090°10'1 0.2
2016-Apr-26 14:09N 29°57' W 090°10'1 0.9
2016-Apr-26 13:29N 29°57' W 090°10'2 1.7
2016-Apr-26 12:30N 29°56' W 090°08'1 1.0
2016-Apr-26 11:34N 29°55' W 090°08'2 0.8
2016-Apr-26 09:05N 29°57' W 090°10'0 0.0
2016-Apr-24 05:33N 29°57' W 090°10'0 0.2
2016-Apr-24 03:08N 29°57' W 090°10'  
Track history (hours):
 
Tides and Currents Weather Stations Pressure Air Temp Water Temp Dewpoint Dewpoint Depression Visibility Wind Speed Wind Dir Waves Ship Positions

Elissa

Owner: Ingram Barge Company, Nashville, TN. More information available from US FCC via Universal Licensing System and Coast Guard Vessel Documentation Center.

Last reported at 2016-May-03 03:13 UTC. Time now 2016-May-04 00:00 UTC.
Position N 29°57' W 090°10'.

Length 26 m; draft 3.6 m.

Type: Towing. MMSI: 367306290.

Date/timePositionNaut miles runAvg speedWind from/ knotsBaromVisibWave heightAir tempDewpointWater temp
2016-May-03 03:13N 29°57' W 090°10'1 1.0
2016-May-03 02:33N 29°57' W 090°10'0 0.0
2016-May-03 01:32N 29°57' W 090°10'0 0.0
2016-May-03 00:33N 29°57' W 090°10'0 0.2
2016-May-02 23:33N 29°57' W 090°10'0 0.0
2016-May-02 22:33N 29°57' W 090°10'2 0.0
2016-Apr-30 22:21N 29°56' W 090°12'2 2.8
2016-Apr-30 21:33N 29°57' W 090°10'0 0.0
2016-Apr-30 20:33N 29°57' W 090°10'1 0.6
2016-Apr-30 18:32N 29°57' W 090°08'3 3.6
2016-Apr-30 17:33N 29°55' W 090°05'4 4.2
2016-Apr-30 16:33N 29°56' W 090°00'5 2.6
2016-Apr-30 14:33N 29°51' W 089°59'4 4.0
2016-Apr-30 13:32N 29°48' W 090°01'9 5.9
2016-Apr-30 12:05N 29°55' W 089°55'611.4
2016-Apr-30 11:33N 29°57' W 090°01'6 6.3
2016-Apr-30 10:33N 29°55' W 090°08'2 2.1
2016-Apr-30 09:33N 29°57' W 090°10'0 0.2
2016-Apr-30 08:23N 29°57' W 090°10'  
2016-Apr-26 20:06N 29°56' W 090°11'2 2.0
2016-Apr-26 19:14N 29°57' W 090°10'0 0.1
2016-Apr-26 17:11N 29°57' W 090°10'1 0.2
2016-Apr-26 14:09N 29°57' W 090°10'1 0.9
2016-Apr-26 13:29N 29°57' W 090°10'2 1.7
2016-Apr-26 12:30N 29°56' W 090°08'1 1.0
2016-Apr-26 11:34N 29°55' W 090°08'2 0.8
2016-Apr-26 09:05N 29°57' W 090°10'0 0.0
2016-Apr-24 05:33N 29°57' W 090°10'0 0.2
2016-Apr-24 03:08N 29°57' W 090°10'  

Dump ship's entire track history